Yuedian 58 — BYFE — position and weather

sailwx.info

Track history (hours):
 
Tides and Currents Weather Stations Pressure Air Temp Water Temp Dewpoint Dewpoint Depression Visibility Wind Speed Wind Dir Waves Ship Positions

Yuedian 58

Last reported at 2015-May-19 10:32 UTC. Time now 2015-May-24 05:18 UTC.
Position N 22°05' E 114°08'.

Length 190 m; draft 7 m.

Type: Cargo ship. MMSI: 414008000.

Date/timePositionNaut miles runAvg speedWind from/ knotsBaromVisibWave heightAir tempDewpointWater temp
2015-May-19 10:32N 22°05' E 114°08'5 4.7
2015-May-19 09:30N 22°10' E 114°10'0 0.0
2015-May-19 08:33N 22°10' E 114°10'0 0.0
2015-May-19 07:33N 22°10' E 114°10'0 0.0
2015-May-19 06:33N 22°10' E 114°10'0 0.0
2015-May-19 05:33N 22°10' E 114°10'0 0.0
2015-May-19 04:30N 22°10' E 114°10'0 0.0
2015-May-19 03:33N 22°10' E 114°10'0 0.0
2015-May-19 02:21N 22°10' E 114°10'0 0.0
2015-May-19 01:21N 22°10' E 114°10'0 0.0
2015-May-19 00:27N 22°10' E 114°10'1 0.9
2015-May-18 23:32N 22°09' E 114°10'7 7.0
2015-May-18 22:33N 22°04' E 114°05'7113.4
2015-May-18 17:15N 21°30' E 112°58'  
2015-May-15 07:20N 21°37' E 113°19'6210.4
2015-May-15 01:20N 21°53' E 114°24'14213.1
2015-May-14 14:27N 22°47' E 116°46'1212.6
2015-May-14 13:30N 22°53' E 116°57'1212.6
2015-May-14 12:31N 22°59' E 117°09'2611.8
2015-May-14 10:19N 23°12' E 117°34'911.4
2015-May-14 09:33N 23°17' E 117°41'2811.8
2015-May-14 07:09N 23°36' E 118°05'812.7
2015-May-14 06:34N 23°41' E 118°11'1212.5
2015-May-14 05:34N 23°50' E 118°20'1312.6
2015-May-14 04:33N 23°58' E 118°31'1513.2
2015-May-14 03:25N 24°08' E 118°43'1313.3
2015-May-14 02:26N 24°17' E 118°54'1213.2
2015-May-14 01:33N 24°24' E 119°03'1413.1
2015-May-14 00:31N 24°34' E 119°14'1312.7
2015-May-13 23:32N 24°42' E 119°25'2612.5
2015-May-13 21:25N 25°00' E 119°45'1312.5
2015-May-13 20:24N 25°10' E 119°55'27512.3
2015-May-12 22:07N 29°05' E 122°35'712.6
2015-May-12 21:33N 29°12' E 122°38'1712.7
2015-May-12 20:15N 29°27' E 122°45'912.6
2015-May-12 19:33N 29°35' E 122°48'1111.5
2015-May-12 18:33N 29°46' E 122°53'1813.0
2015-May-12 17:11N 30°03' E 122°59'813.2
2015-May-12 16:33N 30°11' E 123°02'2813.1
2015-May-12 14:23N 30°38' E 123°11'42112.4
2015-May-11 04:22N 37°39' E 122°48'1011.6
2015-May-11 03:29N 37°45' E 122°38'22712.0
2015-May-10 08:33N 38°56' E 118°03'9 9.1
2015-May-10 07:33N 38°58' E 117°51'2 2.2
2015-May-10 06:29N 38°58' E 117°48'0 0.0
2015-May-10 05:29N 38°58' E 117°48'0 0.0
2015-May-10 04:29N 38°58' E 117°48'0 0.0
2015-May-10 03:23N 38°58' E 117°48'0 0.0
2015-May-10 02:29N 38°58' E 117°48'0 0.0
2015-May-10 01:29N 38°58' E 117°48'0 0.0
2015-May-10 00:23N 38°58' E 117°48'0 0.0
2015-May-09 23:29N 38°58' E 117°48'0 0.0
2015-May-09 22:29N 38°58' E 117°48'0 0.0
2015-May-09 21:11N 38°58' E 117°48'0 0.0
2015-May-09 20:29N 38°58' E 117°48'0 0.0
2015-May-09 19:29N 38°58' E 117°48'0 0.0
2015-May-09 18:17N 38°58' E 117°48'0 0.0
2015-May-09 17:23N 38°58' E 117°48'0 0.0
2015-May-09 16:29N 38°58' E 117°48'0 0.0
2015-May-09 15:23N 38°58' E 117°48'0 0.0
2015-May-09 14:29N 38°58' E 117°48'0 0.0
2015-May-09 13:29N 38°58' E 117°48'0 0.0
2015-May-09 12:29N 38°58' E 117°48'0 0.0
2015-May-09 11:23N 38°58' E 117°48'  
Track history (hours):
 
Tides and Currents Weather Stations Pressure Air Temp Water Temp Dewpoint Dewpoint Depression Visibility Wind Speed Wind Dir Waves Ship Positions

Yuedian 58

Last reported at 2015-May-19 10:32 UTC. Time now 2015-May-24 05:18 UTC.
Position N 22°05' E 114°08'.

Length 190 m; draft 7 m.

Type: Cargo ship. MMSI: 414008000.

Date/timePositionNaut miles runAvg speedWind from/ knotsBaromVisibWave heightAir tempDewpointWater temp
2015-May-19 10:32N 22°05' E 114°08'5 4.7
2015-May-19 09:30N 22°10' E 114°10'0 0.0
2015-May-19 08:33N 22°10' E 114°10'0 0.0
2015-May-19 07:33N 22°10' E 114°10'0 0.0
2015-May-19 06:33N 22°10' E 114°10'0 0.0
2015-May-19 05:33N 22°10' E 114°10'0 0.0
2015-May-19 04:30N 22°10' E 114°10'0 0.0
2015-May-19 03:33N 22°10' E 114°10'0 0.0
2015-May-19 02:21N 22°10' E 114°10'0 0.0
2015-May-19 01:21N 22°10' E 114°10'0 0.0
2015-May-19 00:27N 22°10' E 114°10'1 0.9
2015-May-18 23:32N 22°09' E 114°10'7 7.0
2015-May-18 22:33N 22°04' E 114°05'7113.4
2015-May-18 17:15N 21°30' E 112°58'  
2015-May-15 07:20N 21°37' E 113°19'6210.4
2015-May-15 01:20N 21°53' E 114°24'14213.1
2015-May-14 14:27N 22°47' E 116°46'1212.6
2015-May-14 13:30N 22°53' E 116°57'1212.6
2015-May-14 12:31N 22°59' E 117°09'2611.8
2015-May-14 10:19N 23°12' E 117°34'911.4
2015-May-14 09:33N 23°17' E 117°41'2811.8
2015-May-14 07:09N 23°36' E 118°05'812.7
2015-May-14 06:34N 23°41' E 118°11'1212.5
2015-May-14 05:34N 23°50' E 118°20'1312.6
2015-May-14 04:33N 23°58' E 118°31'1513.2
2015-May-14 03:25N 24°08' E 118°43'1313.3
2015-May-14 02:26N 24°17' E 118°54'1213.2
2015-May-14 01:33N 24°24' E 119°03'1413.1
2015-May-14 00:31N 24°34' E 119°14'1312.7
2015-May-13 23:32N 24°42' E 119°25'2612.5
2015-May-13 21:25N 25°00' E 119°45'1312.5
2015-May-13 20:24N 25°10' E 119°55'27512.3
2015-May-12 22:07N 29°05' E 122°35'712.6
2015-May-12 21:33N 29°12' E 122°38'1712.7
2015-May-12 20:15N 29°27' E 122°45'912.6
2015-May-12 19:33N 29°35' E 122°48'1111.5
2015-May-12 18:33N 29°46' E 122°53'1813.0
2015-May-12 17:11N 30°03' E 122°59'813.2
2015-May-12 16:33N 30°11' E 123°02'2813.1
2015-May-12 14:23N 30°38' E 123°11'42112.4
2015-May-11 04:22N 37°39' E 122°48'1011.6
2015-May-11 03:29N 37°45' E 122°38'22712.0
2015-May-10 08:33N 38°56' E 118°03'9 9.1
2015-May-10 07:33N 38°58' E 117°51'2 2.2
2015-May-10 06:29N 38°58' E 117°48'0 0.0
2015-May-10 05:29N 38°58' E 117°48'0 0.0
2015-May-10 04:29N 38°58' E 117°48'0 0.0
2015-May-10 03:23N 38°58' E 117°48'0 0.0
2015-May-10 02:29N 38°58' E 117°48'0 0.0
2015-May-10 01:29N 38°58' E 117°48'0 0.0
2015-May-10 00:23N 38°58' E 117°48'0 0.0
2015-May-09 23:29N 38°58' E 117°48'0 0.0
2015-May-09 22:29N 38°58' E 117°48'0 0.0
2015-May-09 21:11N 38°58' E 117°48'0 0.0
2015-May-09 20:29N 38°58' E 117°48'0 0.0
2015-May-09 19:29N 38°58' E 117°48'0 0.0
2015-May-09 18:17N 38°58' E 117°48'0 0.0
2015-May-09 17:23N 38°58' E 117°48'0 0.0
2015-May-09 16:29N 38°58' E 117°48'0 0.0
2015-May-09 15:23N 38°58' E 117°48'0 0.0
2015-May-09 14:29N 38°58' E 117°48'0 0.0
2015-May-09 13:29N 38°58' E 117°48'0 0.0
2015-May-09 12:29N 38°58' E 117°48'0 0.0
2015-May-09 11:23N 38°58' E 117°48'  

Dump ship's entire track history